Terminal Aerodrome Forecast
Issued by NWS Jackson, MS

Home | Current Version | Previous Version | Text Only | Print | Product List | Glossary On
Versions: 1 2 3 4 5 6 7 8 9 10 11 12 13 14 15 16 17 18 19 20 21
000
FTUS44 KMEG 040521
TAFTUP
TAF
KTUP 040521Z 0406/0506 23005KT 6SM BR VCSH SCT006 OVC018
     FM040900 22004KT 3SM -SHRA BR VCTS BKN007 OVC018CB
      TEMPO 0409/0413 2SM TSRA OVC006CB
     FM041400 23007KT 6SM BR VCSH BKN009 OVC020
     FM041600 25009KT P6SM VCSH BKN020 OVC100
     FM041800 25009KT P6SM VCTS SCT030CB OVC100
     FM050300 19006KT P6SM SCT030 OVC100=

USA.gov is the U.S. government's official web portal to all federal, state and local government web resources and services.